Chicago Lansing, IL

11:40 AM CST on November 23, 2017 (GMT -0600)
Lansing Municipal

Weather History for KIGQ - February, 2013

Change the Weather History Date:

Thursday, February 7, 2013

  Actual Average (KGYY) Record (KGYY)
Temperature  
Mean Temperature 36 °F -  
Max Temperature 43 °F 27 °F 62 °F (2009)
Min Temperature 30 °F 14 °F -6 °F (1977)
Degree Days  
Heating Degree Days 28    
Moisture  
Dew Point 31 °F    
Average Humidity 87    
Maximum Humidity 98    
Minimum Humidity 69    
Precipitation  
Precipitation 0.00 in - - ()
Sea Level Pressure  
Sea Level Pressure 29.97 in    
Wind  
Wind Speed 6 mph (East)    
Max Wind Speed 14 mph    
Max Gust Speed 18 mph    
Visibility 4 miles    
Events Rain , Snow    
Averages and records for this station are not official NWS values.
T = Trace of Precipitation, MM = Missing Value Source: NWS Daily Summary

Daily Weather History Graph

Daily Weather History Graph

Search for Another Location

Airport or City:

Trip Planner

Search our weather history database for the weather conditions in past years. The results will help you decide how hot, cold, wet, or windy it might be!

Date:

Astronomy

Feb. 07, 2013 Rise Set
Actual Time 6:55 AM CST 5:14 PM CST
Civil Twilight 6:26 AM CST 5:42 PM CST
Nautical Twilight 5:53 AM CST 6:15 PM CST
Astronomical Twilight 5:21 AM CST 6:48 PM CST
Moon 4:35 AM CST (2/7) 2:37 PM CST (2/7)
Length of Visible Light 11h 16m
Length of Day
10h 18m
Waning Crescent, 9% of the Moon is Illuminated
Feb 7
Waning Crescent
Feb 10
New
Feb 17
First Quarter
Feb 25
Full
Mar 4
Last Quarter

Hourly Weather History & Observations

Time (CST) Temp. Windchill Dew Point Humidity Pressure Visibility Wind Dir Wind Speed Gust Speed Precip Events Conditions
12:15 AM 32.0 °F 24.2 °F 27.3 °F 83% 30.13 in 7.0 mi South 9.2 mph - N/A   Clear
12:35 AM 32.0 °F 27.5 °F 27.0 °F 82% 30.12 in 7.0 mi SSE 4.6 mph - N/A   Clear
12:55 AM 31.5 °F 26.8 °F 26.6 °F 82% 30.12 in 7.0 mi SSE 4.6 mph - N/A   Clear
1:15 AM 30.7 °F 26.0 °F 26.4 °F 84% 30.11 in 7.0 mi SE 4.6 mph - N/A   Clear
1:35 AM 30.2 °F 25.4 °F 26.4 °F 86% 30.11 in 5.0 mi ESE 4.6 mph - N/A   Clear
1:55 AM 30.7 °F 24.1 °F 27.0 °F 86% 30.11 in 5.0 mi SE 6.9 mph - N/A   Clear
2:15 AM 30.9 °F 26.2 °F 27.3 °F 86% 30.11 in 5.0 mi ESE 4.6 mph - N/A   Clear
2:35 AM 30.9 °F 26.2 °F 27.3 °F 86% 30.11 in 5.0 mi ESE 4.6 mph - N/A   Clear
2:55 AM 30.9 °F 26.2 °F 27.3 °F 86% 30.11 in 5.0 mi SE 4.6 mph - N/A   Clear
3:15 AM 31.1 °F 27.7 °F 27.3 °F 86% 30.11 in 5.0 mi SE 3.5 mph - N/A   Clear
3:35 AM 31.1 °F 27.7 °F 27.3 °F 86% 30.11 in 5.0 mi ESE 3.5 mph - N/A   Mostly Cloudy
3:55 AM 31.3 °F 27.9 °F 27.5 °F 86% 30.11 in 5.0 mi ESE 3.5 mph - N/A   Overcast
4:15 AM 31.1 °F 26.4 °F 27.5 °F 87% 30.11 in 5.0 mi SE 4.6 mph - N/A   Overcast
4:35 AM 31.5 °F 24.9 °F 27.9 °F 87% 30.10 in 5.0 mi SE 6.9 mph - N/A   Overcast
4:55 AM 31.6 °F 24.4 °F 27.9 °F 86% 30.10 in 5.0 mi SSE 8.1 mph - N/A   Overcast
5:15 AM 31.8 °F 26.2 °F 28.0 °F 86% 30.10 in 5.0 mi SSE 5.8 mph - N/A   Overcast
5:35 AM 32.0 °F 23.6 °F 28.0 °F 85% 30.09 in 5.0 mi SSE 10.4 mph - N/A   Overcast
5:55 AM 32.0 °F 22.1 °F 28.2 °F 86% 30.08 in 5.0 mi SSE 13.8 mph - N/A   Overcast
6:15 AM 32.0 °F 22.5 °F 28.4 °F 87% 30.06 in 5.0 mi SSE 12.7 mph - N/A Rain Light Rain
6:35 AM 32.2 °F 24.4 °F 28.8 °F 87% 30.06 in 5.0 mi SE 9.2 mph - N/A   Overcast
6:55 AM 32.2 °F 25.0 °F 28.9 °F 88% 30.06 in 5.0 mi SE 8.1 mph - N/A   Overcast
7:15 AM 32.2 °F 24.4 °F 29.1 °F 88% 30.05 in 4.0 mi SE 9.2 mph - N/A   Overcast
7:35 AM 32.4 °F 29.1 °F 29.3 °F 88% 30.06 in 4.0 mi SSE 3.5 mph - N/A   Overcast
7:55 AM 32.5 °F 28.1 °F 29.3 °F 88% 30.06 in 4.0 mi SSE 4.6 mph - N/A   Overcast
8:15 AM 32.5 °F 25.5 °F 29.5 °F 88% 30.05 in 4.0 mi SE 8.1 mph - N/A Rain Light Rain
8:35 AM 32.9 °F 29.8 °F 29.3 °F 87% 30.04 in 4.0 mi ESE 3.5 mph - N/A   Overcast
8:55 AM 32.9 °F - 29.7 °F 88% 30.05 in 4.0 mi Calm Calm - N/A Rain Light Rain
9:15 AM 33.1 °F 26.9 °F 30.2 °F 89% 30.03 in 3.0 mi ESE 6.9 mph - N/A   Overcast
9:35 AM 33.8 °F 28.6 °F 30.6 °F 88% 30.02 in 4.0 mi ESE 5.8 mph - N/A   Mostly Cloudy
9:55 AM 34.0 °F 29.8 °F 30.7 °F 88% 30.02 in 4.0 mi East 4.6 mph - N/A   Overcast
10:15 AM 35.1 °F 27.9 °F 30.7 °F 84% 30.01 in 4.0 mi ENE 9.2 mph - N/A   Overcast
10:35 AM 35.6 °F 29.9 °F 30.6 °F 82% 30.01 in 5.0 mi SSE 6.9 mph - N/A   Haze
10:55 AM 36.1 °F 31.4 °F 30.9 °F 81% 30.01 in 5.0 mi NNE 5.8 mph - N/A   Haze
11:15 AM 37.4 °F 33.8 °F 32.0 °F 81% 30.00 in 5.0 mi SE 4.6 mph - N/A   Haze
11:35 AM 36.9 °F 32.2 °F 31.1 °F 80% 29.99 in 5.0 mi SE 5.8 mph - N/A   Haze
11:55 AM 37.6 °F 34.0 °F 31.5 °F 79% 29.98 in 5.0 mi ESE 4.6 mph - N/A   Haze
12:15 PM 38.1 °F - 31.6 °F 77% 29.96 in 5.0 mi Calm Calm - N/A   Haze
12:35 PM 39.4 °F - 32.0 °F 75% 29.95 in 5.0 mi Calm Calm - N/A   Haze
12:55 PM 40.6 °F 35.4 °F 32.9 °F 74% 29.93 in 5.0 mi SE 8.1 mph - N/A   Haze
1:15 PM 41.5 °F 37.1 °F 32.9 °F 71% 29.92 in 5.0 mi SSE 6.9 mph - N/A   Haze
1:35 PM 42.1 °F 40.2 °F 33.4 °F 71% 29.91 in 7.0 mi ESE 3.5 mph - N/A   Overcast
1:55 PM 42.6 °F 40.9 °F 33.3 °F 69% 29.90 in 5.0 mi ESE 3.5 mph - N/A   Haze
2:15 PM 42.1 °F - 33.8 °F 72% 29.89 in 7.0 mi Calm Calm - N/A Rain Light Rain
2:35 PM 43.0 °F 40.3 °F 34.0 °F 71% 29.88 in 7.0 mi SSE 4.6 mph - N/A Rain Light Rain
2:55 PM 42.1 °F 37.1 °F 34.9 °F 76% 29.87 in 5.0 mi ESE 8.1 mph - N/A Rain Light Rain
3:15 PM 40.6 °F 37.5 °F 35.6 °F 82% 29.86 in 4.0 mi ESE 4.6 mph - N/A Rain Light Rain
3:35 PM 41.0 °F - 36.0 °F 82% 29.86 in 5.0 mi Calm Calm - N/A Rain Light Rain
3:55 PM 39.6 °F 37.4 °F 36.1 °F 88% 29.85 in 2.5 mi North 3.5 mph - N/A Rain Rain
4:15 PM 37.2 °F 34.7 °F 34.7 °F 91% 29.86 in 1.5 mi NW 3.5 mph - N/A Rain Rain
4:35 PM 36.5 °F 32.7 °F 34.7 °F 93% 29.85 in 1.0 mi North 4.6 mph - N/A Rain Rain
4:55 PM 35.2 °F 31.2 °F 33.6 °F 94% 29.85 in 1.2 mi NNE 4.6 mph - N/A Rain Rain
5:15 PM 34.7 °F 30.6 °F 33.1 °F 94% 29.85 in 1.8 mi North 4.6 mph - N/A Rain Rain
5:35 PM 34.5 °F 29.4 °F 33.1 °F 94% 29.85 in 1.5 mi NNE 5.8 mph - N/A Rain Heavy Rain
5:55 PM 34.7 °F 30.6 °F 33.3 °F 94% 29.85 in 1.5 mi North 4.6 mph - N/A Rain Heavy Rain
6:15 PM 34.7 °F 29.6 °F 33.3 °F 94% 29.84 in 1.8 mi NNE 5.8 mph - N/A Rain Rain
6:35 PM 34.5 °F 30.4 °F 33.1 °F 94% 29.85 in 1.8 mi NNE 4.6 mph - N/A Rain Rain
6:55 PM 34.2 °F 29.0 °F 33.1 °F 96% 29.86 in 1.8 mi North 5.8 mph - N/A Rain Rain
7:15 PM 34.3 °F 30.2 °F 33.1 °F 95% 29.85 in 1.8 mi NNE 4.6 mph - N/A Rain Rain
7:35 PM 34.3 °F 31.4 °F 33.3 °F 96% 29.86 in 1.5 mi North 3.5 mph - N/A Rain Light Rain
7:55 PM 34.0 °F 28.8 °F 32.9 °F 96% 29.86 in 1.0 mi NNW 5.8 mph - N/A Rain Rain
8:15 PM 33.1 °F 27.7 °F 32.2 °F 96% 29.86 in 1.5 mi NNW 5.8 mph - N/A   Overcast
8:35 PM 32.9 °F 29.8 °F 32.0 °F 96% 29.86 in 1.5 mi NNW 3.5 mph - N/A Snow Light Snow
8:55 PM 32.5 °F 27.1 °F 32.0 °F 98% 29.86 in 1.5 mi NNW 5.8 mph - N/A Snow Light Snow
9:15 PM 32.5 °F 27.1 °F 32.0 °F 98% 29.86 in 1.5 mi NNW 5.8 mph - N/A Snow Light Snow
9:35 PM 32.5 °F 26.2 °F 32.0 °F 98% 29.87 in 1.8 mi NW 6.9 mph - N/A Snow Light Snow
9:55 PM 32.9 °F 25.9 °F 32.0 °F 96% 29.88 in 2.0 mi NW 8.1 mph - N/A Rain Light Rain
10:15 PM 32.9 °F 24.7 °F 32.0 °F 96% 29.88 in 2.5 mi NW 10.4 mph - N/A   Overcast
10:35 PM 32.9 °F 24.7 °F 32.0 °F 96% 29.88 in 4.0 mi NW 10.4 mph - N/A Snow Light Snow
10:55 PM 32.9 °F 25.3 °F 32.0 °F 96% 29.89 in 5.0 mi NW 9.2 mph - N/A   Overcast
11:15 PM 32.9 °F 24.7 °F 32.0 °F 96% 29.89 in 7.0 mi NNW 10.4 mph 16.1 mph N/A Rain Light Rain
11:35 PM 33.1 °F 23.4 °F 32.0 °F 96% 29.90 in 10.0 mi NW 13.8 mph 18.4 mph N/A   Overcast
11:55 PM 33.3 °F 24.6 °F 31.8 °F 94% 29.91 in 10.0 mi NNW 11.5 mph 18.4 mph N/A   Overcast